sensor_id;sensor_type;location;lat;lon;timestamp;temperature;humidity
33761;DHT22;20084;47.912;19.044;2022-12-18T00:00:45;0.50;99.90
33761;DHT22;20084;47.912;19.044;2022-12-18T00:03:13;0.50;99.90
33761;DHT22;20084;47.912;19.044;2022-12-18T00:05:48;0.50;99.90
33761;DHT22;20084;47.912;19.044;2022-12-18T00:08:15;0.50;99.90
33761;DHT22;20084;47.912;19.044;2022-12-18T00:10:40;0.50;99.90
33761;DHT22;20084;47.912;19.044;2022-12-18T00:13:06;0.40;99.90
33761;DHT22;20084;47.912;19.044;2022-12-18T00:15:36;0.50;99.90
33761;DHT22;20084;47.912;19.044;2022-12-18T00:18:02;0.50;99.90
33761;DHT22;20084;47.912;19.044;2022-12-18T00:20:28;0.50;99.90
33761;DHT22;20084;47.912;19.044;2022-12-18T00:22:54;0.50;99.90
33761;DHT22;20084;47.912;19.044;2022-12-18T00:25:19;0.50;99.90
33761;DHT22;20084;47.912;19.044;2022-12-18T00:27:45;0.50;99.90
33761;DHT22;20084;47.912;19.044;2022-12-18T00:30:11;0.60;99.90
33761;DHT22;20084;47.912;19.044;2022-12-18T00:32:37;0.70;99.90
33761;DHT22;20084;47.912;19.044;2022-12-18T00:35:03;0.60;99.90
33761;DHT22;20084;47.912;19.044;2022-12-18T00:37:29;0.70;99.90
33761;DHT22;20084;47.912;19.044;2022-12-18T00:39:54;0.80;99.90
33761;DHT22;20084;47.912;19.044;2022-12-18T00:42:20;0.80;99.90
33761;DHT22;20084;47.912;19.044;2022-12-18T00:45:05;0.80;99.90
33761;DHT22;20084;47.912;19.044;2022-12-18T00:47:30;0.80;99.90
33761;DHT22;20084;47.912;19.044;2022-12-18T00:49:56;0.80;99.90
33761;DHT22;20084;47.912;19.044;2022-12-18T00:52:22;0.90;99.90
33761;DHT22;20084;47.912;19.044;2022-12-18T00:54:47;0.80;99.90
33761;DHT22;20084;47.912;19.044;2022-12-18T00:57:13;0.80;99.90
33761;DHT22;20084;47.912;19.044;2022-12-18T00:59:38;0.70;99.90
33761;DHT22;20084;47.912;19.044;2022-12-18T01:02:04;0.70;99.90
33761;DHT22;20084;47.912;19.044;2022-12-18T01:04:31;0.60;99.90
33761;DHT22;20084;47.912;19.044;2022-12-18T01:06:57;0.60;99.90
33761;DHT22;20084;47.912;19.044;2022-12-18T01:09:23;0.70;99.90
33761;DHT22;20084;47.912;19.044;2022-12-18T01:11:48;0.80;99.90
33761;DHT22;20084;47.912;19.044;2022-12-18T01:14:14;0.80;99.90
33761;DHT22;20084;47.912;19.044;2022-12-18T01:16:39;0.70;99.90
33761;DHT22;20084;47.912;19.044;2022-12-18T01:19:05;0.60;99.90
33761;DHT22;20084;47.912;19.044;2022-12-18T01:21:31;0.60;99.90
33761;DHT22;20084;47.912;19.044;2022-12-18T01:23:57;0.60;99.90
33761;DHT22;20084;47.912;19.044;2022-12-18T01:26:23;0.60;99.90
33761;DHT22;20084;47.912;19.044;2022-12-18T01:28:49;0.60;99.90
33761;DHT22;20084;47.912;19.044;2022-12-18T01:31:24;0.50;99.90
33761;DHT22;20084;47.912;19.044;2022-12-18T01:33:51;0.40;99.90
33761;DHT22;20084;47.912;19.044;2022-12-18T01:36:26;0.50;99.90
33761;DHT22;20084;47.912;19.044;2022-12-18T01:38:52;0.50;99.90
33761;DHT22;20084;47.912;19.044;2022-12-18T01:41:22;0.50;99.90
33761;DHT22;20084;47.912;19.044;2022-12-18T01:43:54;0.50;99.90
33761;DHT22;20084;47.912;19.044;2022-12-18T01:46:21;0.40;99.90
33761;DHT22;20084;47.912;19.044;2022-12-18T01:48:55;0.30;99.90
33761;DHT22;20084;47.912;19.044;2022-12-18T01:51:22;0.20;99.90
33761;DHT22;20084;47.912;19.044;2022-12-18T01:53:48;0.10;99.90
33761;DHT22;20084;47.912;19.044;2022-12-18T01:56:19;0.10;99.90
33761;DHT22;20084;47.912;19.044;2022-12-18T01:58:55;0.20;99.90
33761;DHT22;20084;47.912;19.044;2022-12-18T02:01:25;0.00;99.90
33761;DHT22;20084;47.912;19.044;2022-12-18T02:03:52;-0.30;99.90
33761;DHT22;20084;47.912;19.044;2022-12-18T02:09:02;-0.80;99.90
33761;DHT22;20084;47.912;19.044;2022-12-18T02:17:00;-1.20;99.90
33761;DHT22;20084;47.912;19.044;2022-12-18T02:19:50;-1.20;99.90
33761;DHT22;20084;47.912;19.044;2022-12-18T02:25:05;-1.00;99.90
33761;DHT22;20084;47.912;19.044;2022-12-18T02:27:37;-1.20;99.90
33761;DHT22;20084;47.912;19.044;2022-12-18T02:30:05;-1.20;99.90
33761;DHT22;20084;47.912;19.044;2022-12-18T02:32:35;-1.10;99.90
33761;DHT22;20084;47.912;19.044;2022-12-18T02:35:05;-1.10;99.90
33761;DHT22;20084;47.912;19.044;2022-12-18T02:37:32;-0.80;99.90
33761;DHT22;20084;47.912;19.044;2022-12-18T02:39:59;-0.60;99.90
33761;DHT22;20084;47.912;19.044;2022-12-18T02:42:26;-0.50;99.90
33761;DHT22;20084;47.912;19.044;2022-12-18T02:44:53;-0.50;99.90
33761;DHT22;20084;47.912;19.044;2022-12-18T02:47:21;-0.70;99.90
33761;DHT22;20084;47.912;19.044;2022-12-18T02:53:03;-0.60;99.90
33761;DHT22;20084;47.912;19.044;2022-12-18T02:58:45;-0.30;99.90
33761;DHT22;20084;47.912;19.044;2022-12-18T03:01:25;-0.40;99.90
33761;DHT22;20084;47.912;19.044;2022-12-18T03:03:59;-0.40;99.90
33761;DHT22;20084;47.912;19.044;2022-12-18T03:06:33;-0.50;99.90
33761;DHT22;20084;47.912;19.044;2022-12-18T03:09:09;-0.60;99.90
33761;DHT22;20084;47.912;19.044;2022-12-18T03:11:39;-0.70;99.90
33761;DHT22;20084;47.912;19.044;2022-12-18T03:14:26;-0.90;99.90
33761;DHT22;20084;47.912;19.044;2022-12-18T03:16:57;-1.10;99.90
33761;DHT22;20084;47.912;19.044;2022-12-18T03:19:28;-1.20;99.90
33761;DHT22;20084;47.912;19.044;2022-12-18T03:21:56;-1.20;99.90
33761;DHT22;20084;47.912;19.044;2022-12-18T03:24:24;-1.20;99.90
33761;DHT22;20084;47.912;19.044;2022-12-18T03:26:57;-1.20;99.90
33761;DHT22;20084;47.912;19.044;2022-12-18T03:29:35;-1.10;99.90
33761;DHT22;20084;47.912;19.044;2022-12-18T03:32:25;-1.10;99.90
33761;DHT22;20084;47.912;19.044;2022-12-18T03:34:55;-1.00;99.90
33761;DHT22;20084;47.912;19.044;2022-12-18T03:37:23;-0.80;99.90
33761;DHT22;20084;47.912;19.044;2022-12-18T03:39:49;-0.80;99.90
33761;DHT22;20084;47.912;19.044;2022-12-18T03:42:15;-0.80;99.90
33761;DHT22;20084;47.912;19.044;2022-12-18T03:47:43;-0.90;99.90
33761;DHT22;20084;47.912;19.044;2022-12-18T03:50:16;-1.10;99.90
33761;DHT22;20084;47.912;19.044;2022-12-18T03:52:52;-1.30;99.90
33761;DHT22;20084;47.912;19.044;2022-12-18T03:55:21;-1.20;99.90
33761;DHT22;20084;47.912;19.044;2022-12-18T03:57:48;-1.00;99.90
33761;DHT22;20084;47.912;19.044;2022-12-18T04:00:17;-0.80;99.90
33761;DHT22;20084;47.912;19.044;2022-12-18T04:02:50;-0.90;99.90
33761;DHT22;20084;47.912;19.044;2022-12-18T04:05:18;-1.10;99.90
33761;DHT22;20084;47.912;19.044;2022-12-18T04:07:47;-1.20;99.90
33761;DHT22;20084;47.912;19.044;2022-12-18T04:10:15;-1.10;99.90
33761;DHT22;20084;47.912;19.044;2022-12-18T04:12:41;-1.00;99.90
33761;DHT22;20084;47.912;19.044;2022-12-18T04:15:08;-1.00;99.90
33761;DHT22;20084;47.912;19.044;2022-12-18T04:17:34;-1.00;99.90
33761;DHT22;20084;47.912;19.044;2022-12-18T04:20:00;-1.10;99.90
33761;DHT22;20084;47.912;19.044;2022-12-18T04:22:25;-1.20;99.90
33761;DHT22;20084;47.912;19.044;2022-12-18T04:24:51;-1.40;99.90
33761;DHT22;20084;47.912;19.044;2022-12-18T04:27:17;-1.30;99.90
33761;DHT22;20084;47.912;19.044;2022-12-18T04:29:42;-1.30;99.90
33761;DHT22;20084;47.912;19.044;2022-12-18T04:32:08;-1.50;99.90
33761;DHT22;20084;47.912;19.044;2022-12-18T04:34:34;-1.50;99.90
33761;DHT22;20084;47.912;19.044;2022-12-18T04:37:00;-1.60;99.90
33761;DHT22;20084;47.912;19.044;2022-12-18T04:39:26;-1.60;99.90
33761;DHT22;20084;47.912;19.044;2022-12-18T04:41:52;-1.60;99.90
33761;DHT22;20084;47.912;19.044;2022-12-18T04:44:17;-1.40;99.90
33761;DHT22;20084;47.912;19.044;2022-12-18T04:46:43;-1.20;99.90
33761;DHT22;20084;47.912;19.044;2022-12-18T04:49:09;-1.20;99.90
33761;DHT22;20084;47.912;19.044;2022-12-18T04:51:36;-1.20;99.90
33761;DHT22;20084;47.912;19.044;2022-12-18T04:54:02;-1.20;99.90
33761;DHT22;20084;47.912;19.044;2022-12-18T04:56:28;-1.40;99.90
33761;DHT22;20084;47.912;19.044;2022-12-18T04:58:54;-1.50;99.90
33761;DHT22;20084;47.912;19.044;2022-12-18T05:01:19;-1.50;99.90
33761;DHT22;20084;47.912;19.044;2022-12-18T05:03:45;-1.70;99.90
33761;DHT22;20084;47.912;19.044;2022-12-18T05:06:11;-1.70;99.90
33761;DHT22;20084;47.912;19.044;2022-12-18T05:08:36;-1.70;99.90
33761;DHT22;20084;47.912;19.044;2022-12-18T05:11:08;-1.70;99.90
33761;DHT22;20084;47.912;19.044;2022-12-18T05:13:35;-1.60;99.90
33761;DHT22;20084;47.912;19.044;2022-12-18T05:16:01;-1.50;99.90
33761;DHT22;20084;47.912;19.044;2022-12-18T05:18:28;-1.50;99.90
33761;DHT22;20084;47.912;19.044;2022-12-18T05:20:54;-1.40;99.90
33761;DHT22;20084;47.912;19.044;2022-12-18T05:23:21;-1.40;99.90
33761;DHT22;20084;47.912;19.044;2022-12-18T05:25:55;-1.40;99.90
33761;DHT22;20084;47.912;19.044;2022-12-18T05:28:21;-1.40;99.90
33761;DHT22;20084;47.912;19.044;2022-12-18T05:30:52;-1.40;99.90
33761;DHT22;20084;47.912;19.044;2022-12-18T05:33:20;-1.30;99.90
33761;DHT22;20084;47.912;19.044;2022-12-18T05:35:53;-1.20;99.90
33761;DHT22;20084;47.912;19.044;2022-12-18T05:38:21;-1.20;99.90
33761;DHT22;20084;47.912;19.044;2022-12-18T05:40:48;-1.20;99.90
33761;DHT22;20084;47.912;19.044;2022-12-18T05:43:14;-1.10;99.90
33761;DHT22;20084;47.912;19.044;2022-12-18T05:45:40;-1.10;99.90
33761;DHT22;20084;47.912;19.044;2022-12-18T05:48:06;-1.30;99.90
33761;DHT22;20084;47.912;19.044;2022-12-18T05:50:37;-1.60;99.90
33761;DHT22;20084;47.912;19.044;2022-12-18T05:53:04;-1.80;99.90
33761;DHT22;20084;47.912;19.044;2022-12-18T05:55:36;-2.00;99.90
33761;DHT22;20084;47.912;19.044;2022-12-18T05:58:04;-2.10;99.90
33761;DHT22;20084;47.912;19.044;2022-12-18T06:00:31;-2.00;99.90
33761;DHT22;20084;47.912;19.044;2022-12-18T06:02:57;-2.00;99.90
33761;DHT22;20084;47.912;19.044;2022-12-18T06:05:24;-1.90;99.90
33761;DHT22;20084;47.912;19.044;2022-12-18T06:07:49;-1.80;99.90
33761;DHT22;20084;47.912;19.044;2022-12-18T06:10:15;-1.80;99.90
33761;DHT22;20084;47.912;19.044;2022-12-18T06:12:41;-1.80;99.90
33761;DHT22;20084;47.912;19.044;2022-12-18T06:15:07;-1.80;99.90
33761;DHT22;20084;47.912;19.044;2022-12-18T06:17:33;-1.90;99.90
33761;DHT22;20084;47.912;19.044;2022-12-18T06:19:59;-1.90;99.90
33761;DHT22;20084;47.912;19.044;2022-12-18T06:22:25;-1.90;99.90
33761;DHT22;20084;47.912;19.044;2022-12-18T06:24:51;-2.00;99.90
33761;DHT22;20084;47.912;19.044;2022-12-18T06:27:17;-2.00;99.90
33761;DHT22;20084;47.912;19.044;2022-12-18T06:29:42;-2.20;99.90
33761;DHT22;20084;47.912;19.044;2022-12-18T06:32:08;-2.30;99.90
33761;DHT22;20084;47.912;19.044;2022-12-18T06:34:36;-2.30;99.90
33761;DHT22;20084;47.912;19.044;2022-12-18T06:37:02;-2.40;99.90
33761;DHT22;20084;47.912;19.044;2022-12-18T06:39:28;-2.40;99.90
33761;DHT22;20084;47.912;19.044;2022-12-18T06:41:53;-2.50;99.90
33761;DHT22;20084;47.912;19.044;2022-12-18T06:44:19;-2.60;99.90
33761;DHT22;20084;47.912;19.044;2022-12-18T06:46:45;-2.70;99.90
33761;DHT22;20084;47.912;19.044;2022-12-18T06:49:11;-2.80;99.90
33761;DHT22;20084;47.912;19.044;2022-12-18T06:51:37;-2.70;99.90
33761;DHT22;20084;47.912;19.044;2022-12-18T06:54:02;-2.70;99.90
33761;DHT22;20084;47.912;19.044;2022-12-18T06:56:29;-2.70;99.90
33761;DHT22;20084;47.912;19.044;2022-12-18T06:58:55;-2.70;99.90
33761;DHT22;20084;47.912;19.044;2022-12-18T07:01:21;-2.60;99.90
33761;DHT22;20084;47.912;19.044;2022-12-18T07:03:47;-2.50;99.90
33761;DHT22;20084;47.912;19.044;2022-12-18T07:06:18;-2.40;99.90
33761;DHT22;20084;47.912;19.044;2022-12-18T07:08:45;-2.40;99.90
33761;DHT22;20084;47.912;19.044;2022-12-18T07:11:12;-2.40;99.90
33761;DHT22;20084;47.912;19.044;2022-12-18T07:13:38;-2.40;99.90
33761;DHT22;20084;47.912;19.044;2022-12-18T07:16:11;-2.40;99.90
33761;DHT22;20084;47.912;19.044;2022-12-18T07:18:37;-2.30;99.90
33761;DHT22;20084;47.912;19.044;2022-12-18T07:21:08;-2.30;99.90
33761;DHT22;20084;47.912;19.044;2022-12-18T07:23:35;-2.40;99.90
33761;DHT22;20084;47.912;19.044;2022-12-18T07:26:11;-2.50;99.90
33761;DHT22;20084;47.912;19.044;2022-12-18T07:28:39;-2.40;99.90
33761;DHT22;20084;47.912;19.044;2022-12-18T07:31:19;-2.30;99.90
33761;DHT22;20084;47.912;19.044;2022-12-18T07:33:46;-2.20;99.90
33761;DHT22;20084;47.912;19.044;2022-12-18T07:36:12;-2.10;99.90
33761;DHT22;20084;47.912;19.044;2022-12-18T07:38:38;-2.10;99.90
33761;DHT22;20084;47.912;19.044;2022-12-18T07:41:06;-2.00;99.90
33761;DHT22;20084;47.912;19.044;2022-12-18T07:43:33;-1.90;99.90
33761;DHT22;20084;47.912;19.044;2022-12-18T07:45:58;-1.70;99.90
33761;DHT22;20084;47.912;19.044;2022-12-18T07:48:24;-1.50;99.90
33761;DHT22;20084;47.912;19.044;2022-12-18T07:50:50;-1.40;99.90
33761;DHT22;20084;47.912;19.044;2022-12-18T07:53:15;-1.30;99.90
33761;DHT22;20084;47.912;19.044;2022-12-18T07:55:41;-1.20;99.90
33761;DHT22;20084;47.912;19.044;2022-12-18T07:58:07;-1.10;99.90
33761;DHT22;20084;47.912;19.044;2022-12-18T08:00:34;-1.00;99.90
33761;DHT22;20084;47.912;19.044;2022-12-18T08:03:00;-0.80;99.90
33761;DHT22;20084;47.912;19.044;2022-12-18T08:05:25;-0.70;99.90
33761;DHT22;20084;47.912;19.044;2022-12-18T08:07:51;-0.60;99.90
33761;DHT22;20084;47.912;19.044;2022-12-18T08:10:17;-0.50;99.90
33761;DHT22;20084;47.912;19.044;2022-12-18T08:12:42;-0.20;99.90
33761;DHT22;20084;47.912;19.044;2022-12-18T08:15:08;0.00;99.90
33761;DHT22;20084;47.912;19.044;2022-12-18T08:17:34;0.20;99.90
33761;DHT22;20084;47.912;19.044;2022-12-18T08:20:00;0.40;99.90
33761;DHT22;20084;47.912;19.044;2022-12-18T08:22:25;0.60;99.90
33761;DHT22;20084;47.912;19.044;2022-12-18T08:24:51;0.70;99.90
33761;DHT22;20084;47.912;19.044;2022-12-18T08:27:16;0.80;99.90
33761;DHT22;20084;47.912;19.044;2022-12-18T08:29:42;0.80;99.90
33761;DHT22;20084;47.912;19.044;2022-12-18T08:32:08;0.70;99.90
33761;DHT22;20084;47.912;19.044;2022-12-18T08:34:33;0.60;99.90
33761;DHT22;20084;47.912;19.044;2022-12-18T08:36:59;0.60;99.90
33761;DHT22;20084;47.912;19.044;2022-12-18T08:39:25;0.50;99.90
33761;DHT22;20084;47.912;19.044;2022-12-18T08:41:50;0.60;99.90
33761;DHT22;20084;47.912;19.044;2022-12-18T08:44:35;0.70;99.90
33761;DHT22;20084;47.912;19.044;2022-12-18T08:47:04;0.70;99.90
33761;DHT22;20084;47.912;19.044;2022-12-18T08:49:29;0.70;99.90
33761;DHT22;20084;47.912;19.044;2022-12-18T08:51:56;0.80;99.90
33761;DHT22;20084;47.912;19.044;2022-12-18T08:54:24;0.80;99.90
33761;DHT22;20084;47.912;19.044;2022-12-18T08:56:50;0.90;99.90
33761;DHT22;20084;47.912;19.044;2022-12-18T08:59:17;1.00;99.90
33761;DHT22;20084;47.912;19.044;2022-12-18T09:01:42;1.00;99.90
33761;DHT22;20084;47.912;19.044;2022-12-18T09:04:09;1.00;99.90
33761;DHT22;20084;47.912;19.044;2022-12-18T09:06:35;1.00;99.90
33761;DHT22;20084;47.912;19.044;2022-12-18T09:09:01;1.00;99.90
33761;DHT22;20084;47.912;19.044;2022-12-18T09:11:28;1.00;99.90
33761;DHT22;20084;47.912;19.044;2022-12-18T09:13:55;1.00;99.90
33761;DHT22;20084;47.912;19.044;2022-12-18T09:16:21;1.00;99.90
33761;DHT22;20084;47.912;19.044;2022-12-18T09:18:47;0.90;99.90
33761;DHT22;20084;47.912;19.044;2022-12-18T09:21:15;0.90;99.90
33761;DHT22;20084;47.912;19.044;2022-12-18T09:23:41;0.80;99.90
33761;DHT22;20084;47.912;19.044;2022-12-18T09:26:07;0.90;99.90
33761;DHT22;20084;47.912;19.044;2022-12-18T09:28:33;1.00;99.90
33761;DHT22;20084;47.912;19.044;2022-12-18T09:31:04;0.90;99.90
33761;DHT22;20084;47.912;19.044;2022-12-18T09:33:30;1.10;99.90
33761;DHT22;20084;47.912;19.044;2022-12-18T09:35:56;1.20;99.90
33761;DHT22;20084;47.912;19.044;2022-12-18T09:38:22;1.10;99.90
33761;DHT22;20084;47.912;19.044;2022-12-18T09:40:51;0.90;99.90
33761;DHT22;20084;47.912;19.044;2022-12-18T09:43:20;0.70;99.90
33761;DHT22;20084;47.912;19.044;2022-12-18T09:46:01;0.70;99.90
33761;DHT22;20084;47.912;19.044;2022-12-18T09:48:34;0.80;99.90
33761;DHT22;20084;47.912;19.044;2022-12-18T09:51:18;0.90;99.90
33761;DHT22;20084;47.912;19.044;2022-12-18T09:53:51;1.20;99.90
33761;DHT22;20084;47.912;19.044;2022-12-18T09:56:20;1.30;99.90
33761;DHT22;20084;47.912;19.044;2022-12-18T09:59:02;1.30;99.90
33761;DHT22;20084;47.912;19.044;2022-12-18T10:01:28;1.30;99.90
33761;DHT22;20084;47.912;19.044;2022-12-18T10:03:55;1.30;99.90
33761;DHT22;20084;47.912;19.044;2022-12-18T10:06:38;1.60;99.90
33761;DHT22;20084;47.912;19.044;2022-12-18T10:09:09;1.70;99.90
33761;DHT22;20084;47.912;19.044;2022-12-18T10:18:06;1.70;99.90
33761;DHT22;20084;47.912;19.044;2022-12-18T10:27:44;2.00;99.90
33761;DHT22;20084;47.912;19.044;2022-12-18T10:30:19;2.00;99.90
33761;DHT22;20084;47.912;19.044;2022-12-18T10:32:45;2.10;99.90
33761;DHT22;20084;47.912;19.044;2022-12-18T10:35:23;2.20;99.90
33761;DHT22;20084;47.912;19.044;2022-12-18T10:43:16;2.10;99.90
33761;DHT22;20084;47.912;19.044;2022-12-18T10:45:58;2.20;99.90
33761;DHT22;20084;47.912;19.044;2022-12-18T10:48:24;2.30;99.90
33761;DHT22;20084;47.912;19.044;2022-12-18T10:50:51;2.20;99.90
33761;DHT22;20084;47.912;19.044;2022-12-18T10:53:30;2.10;99.90
33761;DHT22;20084;47.912;19.044;2022-12-18T10:55:58;2.10;99.90
33761;DHT22;20084;47.912;19.044;2022-12-18T10:58:29;2.20;99.90
33761;DHT22;20084;47.912;19.044;2022-12-18T11:06:18;2.60;99.90
33761;DHT22;20084;47.912;19.044;2022-12-18T11:09:09;2.60;99.90
33761;DHT22;20084;47.912;19.044;2022-12-18T11:11:51;2.70;99.90
33761;DHT22;20084;47.912;19.044;2022-12-18T11:14:42;2.90;99.90
33761;DHT22;20084;47.912;19.044;2022-12-18T11:17:21;2.90;99.90
33761;DHT22;20084;47.912;19.044;2022-12-18T11:19:55;2.70;99.90
33761;DHT22;20084;47.912;19.044;2022-12-18T11:22:32;2.80;99.90
33761;DHT22;20084;47.912;19.044;2022-12-18T11:25:17;2.80;99.90
33761;DHT22;20084;47.912;19.044;2022-12-18T11:27:57;2.80;99.90
33761;DHT22;20084;47.912;19.044;2022-12-18T11:32:53;2.90;99.90
33761;DHT22;20084;47.912;19.044;2022-12-18T11:38:24;3.10;99.90
33761;DHT22;20084;47.912;19.044;2022-12-18T11:43:39;3.00;99.90
33761;DHT22;20084;47.912;19.044;2022-12-18T11:46:23;3.10;99.90
33761;DHT22;20084;47.912;19.044;2022-12-18T11:49:03;3.20;99.90
33761;DHT22;20084;47.912;19.044;2022-12-18T11:51:43;3.00;99.90
33761;DHT22;20084;47.912;19.044;2022-12-18T11:54:15;3.00;99.90
33761;DHT22;20084;47.912;19.044;2022-12-18T11:59:53;2.90;99.90
33761;DHT22;20084;47.912;19.044;2022-12-18T12:05:16;3.10;99.90
33761;DHT22;20084;47.912;19.044;2022-12-18T12:08:34;3.00;99.90
33761;DHT22;20084;47.912;19.044;2022-12-18T12:11:01;3.10;99.90
33761;DHT22;20084;47.912;19.044;2022-12-18T12:16:24;3.30;99.90
33761;DHT22;20084;47.912;19.044;2022-12-18T12:21:39;3.40;99.90
33761;DHT22;20084;47.912;19.044;2022-12-18T12:27:16;3.50;99.90
33761;DHT22;20084;47.912;19.044;2022-12-18T12:30:07;3.60;99.90
33761;DHT22;20084;47.912;19.044;2022-12-18T12:32:56;3.70;99.90
33761;DHT22;20084;47.912;19.044;2022-12-18T12:40:45;3.80;99.90
33761;DHT22;20084;47.912;19.044;2022-12-18T12:46:09;3.90;99.90
33761;DHT22;20084;47.912;19.044;2022-12-18T12:48:43;3.90;99.90
33761;DHT22;20084;47.912;19.044;2022-12-18T12:51:34;3.90;99.90
33761;DHT22;20084;47.912;19.044;2022-12-18T12:54:01;3.90;99.90
33761;DHT22;20084;47.912;19.044;2022-12-18T12:56:39;3.90;99.90
33761;DHT22;20084;47.912;19.044;2022-12-18T12:59:47;3.90;99.90
33761;DHT22;20084;47.912;19.044;2022-12-18T13:20:49;4.00;99.90
33761;DHT22;20084;47.912;19.044;2022-12-18T13:25:50;4.00;99.90
33761;DHT22;20084;47.912;19.044;2022-12-18T13:28:21;4.10;99.90
33761;DHT22;20084;47.912;19.044;2022-12-18T13:30:52;4.30;99.90
33761;DHT22;20084;47.912;19.044;2022-12-18T13:41:39;4.80;99.90
33761;DHT22;20084;47.912;19.044;2022-12-18T13:43:56;5.10;99.90
33761;DHT22;20084;47.912;19.044;2022-12-18T13:46:46;5.30;99.90
33761;DHT22;20084;47.912;19.044;2022-12-18T13:51:40;5.90;99.90
33761;DHT22;20084;47.912;19.044;2022-12-18T13:56:49;6.80;99.90
33761;DHT22;20084;47.912;19.044;2022-12-18T14:04:30;6.10;99.90
33761;DHT22;20084;47.912;19.044;2022-12-18T14:07:07;5.60;99.90
33761;DHT22;20084;47.912;19.044;2022-12-18T14:09:55;5.30;99.90
33761;DHT22;20084;47.912;19.044;2022-12-18T14:12:27;5.00;99.90
33761;DHT22;20084;47.912;19.044;2022-12-18T14:15:41;4.60;99.90
33761;DHT22;20084;47.912;19.044;2022-12-18T14:18:19;4.30;99.90
33761;DHT22;20084;47.912;19.044;2022-12-18T14:20:47;4.10;99.90
33761;DHT22;20084;47.912;19.044;2022-12-18T14:25:54;3.70;99.90
33761;DHT22;20084;47.912;19.044;2022-12-18T14:28:20;3.60;99.90
33761;DHT22;20084;47.912;19.044;2022-12-18T14:30:48;3.50;99.90
33761;DHT22;20084;47.912;19.044;2022-12-18T14:36:05;3.20;99.90
33761;DHT22;20084;47.912;19.044;2022-12-18T14:38:40;3.10;99.90
33761;DHT22;20084;47.912;19.044;2022-12-18T14:41:13;3.00;99.90
33761;DHT22;20084;47.912;19.044;2022-12-18T14:43:42;2.90;99.90
33761;DHT22;20084;47.912;19.044;2022-12-18T14:46:36;2.70;99.90
33761;DHT22;20084;47.912;19.044;2022-12-18T14:49:29;2.60;99.90
33761;DHT22;20084;47.912;19.044;2022-12-18T14:52:00;2.60;99.90
33761;DHT22;20084;47.912;19.044;2022-12-18T14:54:28;2.40;99.90
33761;DHT22;20084;47.912;19.044;2022-12-18T14:59:46;2.30;99.90
33761;DHT22;20084;47.912;19.044;2022-12-18T15:02:28;2.20;99.90
33761;DHT22;20084;47.912;19.044;2022-12-18T15:05:30;2.10;99.90
33761;DHT22;20084;47.912;19.044;2022-12-18T15:08:00;2.10;99.90
33761;DHT22;20084;47.912;19.044;2022-12-18T15:10:30;2.00;99.90
33761;DHT22;20084;47.912;19.044;2022-12-18T15:18:02;1.80;99.90
33761;DHT22;20084;47.912;19.044;2022-12-18T15:20:31;1.80;99.90
33761;DHT22;20084;47.912;19.044;2022-12-18T15:22:58;1.80;99.90
33761;DHT22;20084;47.912;19.044;2022-12-18T15:25:32;1.70;99.90
33761;DHT22;20084;47.912;19.044;2022-12-18T15:28:00;1.70;99.90
33761;DHT22;20084;47.912;19.044;2022-12-18T15:30:26;1.60;99.90
33761;DHT22;20084;47.912;19.044;2022-12-18T15:32:55;1.40;99.90
33761;DHT22;20084;47.912;19.044;2022-12-18T15:35:38;1.40;99.90
33761;DHT22;20084;47.912;19.044;2022-12-18T15:38:04;1.40;99.90
33761;DHT22;20084;47.912;19.044;2022-12-18T15:40:30;1.40;99.90
33761;DHT22;20084;47.912;19.044;2022-12-18T15:42:56;1.30;99.90
33761;DHT22;20084;47.912;19.044;2022-12-18T15:45:41;1.30;99.90
33761;DHT22;20084;47.912;19.044;2022-12-18T15:48:23;1.10;99.90
33761;DHT22;20084;47.912;19.044;2022-12-18T15:50:54;1.10;99.90
33761;DHT22;20084;47.912;19.044;2022-12-18T15:53:23;1.00;99.90
33761;DHT22;20084;47.912;19.044;2022-12-18T15:55:49;1.00;99.90
33761;DHT22;20084;47.912;19.044;2022-12-18T15:58:34;0.90;99.90
33761;DHT22;20084;47.912;19.044;2022-12-18T16:01:00;0.90;99.90
33761;DHT22;20084;47.912;19.044;2022-12-18T16:03:27;0.90;99.90
33761;DHT22;20084;47.912;19.044;2022-12-18T16:05:53;0.90;99.90
33761;DHT22;20084;47.912;19.044;2022-12-18T16:08:19;0.90;99.90
33761;DHT22;20084;47.912;19.044;2022-12-18T16:10:45;0.70;99.90
33761;DHT22;20084;47.912;19.044;2022-12-18T16:13:16;0.50;99.90
33761;DHT22;20084;47.912;19.044;2022-12-18T16:15:44;0.40;99.90
33761;DHT22;20084;47.912;19.044;2022-12-18T16:18:10;0.20;99.90
33761;DHT22;20084;47.912;19.044;2022-12-18T16:20:38;0.20;99.90
33761;DHT22;20084;47.912;19.044;2022-12-18T16:23:04;0.10;99.90
33761;DHT22;20084;47.912;19.044;2022-12-18T16:25:31;0.00;99.90
33761;DHT22;20084;47.912;19.044;2022-12-18T16:27:57;0.00;99.90
33761;DHT22;20084;47.912;19.044;2022-12-18T16:30:30;0.00;99.90
33761;DHT22;20084;47.912;19.044;2022-12-18T16:32:57;0.00;99.90
33761;DHT22;20084;47.912;19.044;2022-12-18T16:35:24;-0.10;99.90
33761;DHT22;20084;47.912;19.044;2022-12-18T16:37:51;-0.10;99.90
33761;DHT22;20084;47.912;19.044;2022-12-18T16:40:19;-0.10;99.90
33761;DHT22;20084;47.912;19.044;2022-12-18T16:42:46;-0.10;99.90
33761;DHT22;20084;47.912;19.044;2022-12-18T16:45:15;-0.10;99.90
33761;DHT22;20084;47.912;19.044;2022-12-18T16:47:43;-0.10;99.90
33761;DHT22;20084;47.912;19.044;2022-12-18T16:50:10;-0.20;99.90
33761;DHT22;20084;47.912;19.044;2022-12-18T16:52:36;-0.30;99.90
33761;DHT22;20084;47.912;19.044;2022-12-18T16:55:03;-0.30;99.90
33761;DHT22;20084;47.912;19.044;2022-12-18T16:57:29;-0.30;99.90
33761;DHT22;20084;47.912;19.044;2022-12-18T16:59:57;-0.30;99.90
33761;DHT22;20084;47.912;19.044;2022-12-18T17:02:24;-0.40;99.90
33761;DHT22;20084;47.912;19.044;2022-12-18T17:04:56;-0.50;99.90
33761;DHT22;20084;47.912;19.044;2022-12-18T17:07:24;-0.60;99.90
33761;DHT22;20084;47.912;19.044;2022-12-18T17:09:50;-0.60;99.90
33761;DHT22;20084;47.912;19.044;2022-12-18T17:12:20;-0.60;99.90
33761;DHT22;20084;47.912;19.044;2022-12-18T17:14:46;-0.60;99.90
33761;DHT22;20084;47.912;19.044;2022-12-18T17:17:12;-0.60;99.90
33761;DHT22;20084;47.912;19.044;2022-12-18T17:19:38;-0.60;99.90
33761;DHT22;20084;47.912;19.044;2022-12-18T17:22:04;-0.70;99.90
33761;DHT22;20084;47.912;19.044;2022-12-18T17:24:31;-0.90;99.90
33761;DHT22;20084;47.912;19.044;2022-12-18T17:26:57;-0.90;99.90
33761;DHT22;20084;47.912;19.044;2022-12-18T17:29:23;-0.90;99.90
33761;DHT22;20084;47.912;19.044;2022-12-18T17:31:49;-0.90;99.90
33761;DHT22;20084;47.912;19.044;2022-12-18T17:34:16;-1.00;99.90
33761;DHT22;20084;47.912;19.044;2022-12-18T17:36:43;-1.00;99.90
33761;DHT22;20084;47.912;19.044;2022-12-18T17:39:16;-1.00;99.90
33761;DHT22;20084;47.912;19.044;2022-12-18T17:41:43;-1.00;99.90
33761;DHT22;20084;47.912;19.044;2022-12-18T17:44:09;-1.10;99.90
33761;DHT22;20084;47.912;19.044;2022-12-18T17:46:35;-1.10;99.90
33761;DHT22;20084;47.912;19.044;2022-12-18T17:49:02;-1.20;99.90